FW7233 Weather Reports


Display with metric or nautical units.
time (UTC)temp
F
wind
direction
speed
MPH
gust
MPH
rain 1hr
in
rain 24hr
in
rain mn
in
humidity
%
barometer
mb
20201029223106 45 177 1.0 4.0 0.00 0.04 0.04 93 1018.0
20201029222534 45 188 3.0 4.0 0.00 0.04 0.04 94 1017.9
20201029222027 45 182 0.0 3.0 0.00 0.04 0.04 94 1017.8
20201029221531 44 183 1.0 3.0 0.00 0.04 0.04 94 1017.7
20201029220958 44 204 2.0 3.0 0.00 0.04 0.04 94 1017.7
20201029220447 44 204 1.0 2.0 0.00 0.04 0.04 94 1017.6
20201029215941 44 224 1.0 2.0 0.00 0.04 0.04 94 1017.7
20201029215431 44 176 1.0 3.0 0.00 0.04 0.04 94 1017.5
20201029214924 44 189 0.0 3.0 0.00 0.04 0.04 94 1017.6
20201029214428 45 181 1.0 3.0 0.00 0.04 0.04 94 1017.8
20201029213914 45 163 0.0 3.0 0.00 0.04 0.04 94 1017.5
20201029213405 45 179 0.0 3.0 0.00 0.04 0.04 94 1017.6
20201029212901 45 169 0.0 2.0 0.00 0.04 0.04 94 1017.5
20201029212347 45 192 0.0 2.0 0.00 0.04 0.04 94 1017.5
20201029211837 44 174 0.0 4.0 0.00 0.04 0.04 94 1017.4
20201029211334 44 172 1.0 4.0 0.00 0.04 0.04 94 1017.4
20201029210819 44 128 0.0 4.0 0.00 0.04 0.04 93 1017.4
20201029210335 44 155 0.0 3.0 0.00 0.04 0.04 93 1017.5
20201029205807 45 205 2.0 4.0 0.00 0.04 0.04 93 1017.4
20201029205301 45 124 1.0 4.0 0.00 0.04 0.04 92 1017.4
20201029204749 45 225 3.0 4.0 0.00 0.04 0.04 92 1017.5
20201029204247 45 280 3.0 6.0 0.00 0.04 0.04 93 1017.6
20201029203739 45 243 2.0 6.0 0.00 0.04 0.04 93 1017.2
20201029203228 45 158 1.0 4.0 0.00 0.04 0.04 93 1017.4
20201029202705 45 205 0.0 6.0 0.00 0.04 0.04 93 1017.4
20201029202157 45 178 1.0 6.0 0.00 0.04 0.04 93 1017.1
20201029201648 45 237 2.0 3.0 0.00 0.04 0.04 94 1017.2
20201029201143 45 180 0.0 6.0 0.00 0.04 0.04 94 1017.4
20201029200646 45 190 2.0 6.0 0.00 0.04 0.04 94 1017.2
20201029200128 45 148 2.0 4.0 0.00 0.04 0.04 94 1017.1
20201029195707 45 171 2.0 4.0 0.00 0.04 0.04 94 1016.8
20201029195125 45 329 2.0 3.0 0.00 0.04 0.04 94 1017.0
20201029194620 46 260 2.0 4.0 0.00 0.04 0.04 94 1016.8
20201029194056 46 182 1.0 4.0 0.00 0.04 0.04 94 1016.8
20201029193543 46 220 2.0 4.0 0.00 0.04 0.04 94 1017.1
20201029193107 46 112 1.0 6.0 0.00 0.04 0.04 95 1016.6
20201029192527 46 123 0.0 6.0 0.00 0.04 0.04 95 1016.8
20201029192037 46 222 2.0 6.0 0.00 0.04 0.04 95 1016.5
20201029191526 46 149 0.0 6.0 0.00 0.04 0.04 95 1016.8
20201029191027 46 215 3.0 4.0 0.00 0.04 0.04 95 1016.7
20201029190524 46 220 1.0 4.0 0.00 0.04 0.04 95 1016.5
20201029185948 47 181 1.0 3.0 0.00 0.04 0.04 95 1016.5
20201029185444 47 190 0.0 3.0 0.00 0.04 0.04 95 1016.4
20201029184934 47 171 0.0 3.0 0.00 0.04 0.04 94 1016.4
20201029184428 47 154 0.0 3.0 0.00 0.04 0.04 94 1016.1
20201029183921 47 187 1.0 3.0 0.00 0.04 0.04 94 1016.4
20201029183414 47 185 1.0 3.0 0.00 0.04 0.04 94 1016.1
20201029182911 48 146 0.0 2.0 0.00 0.04 0.04 94 1016.0
20201029182356 48 228 1.0 3.0 0.00 0.04 0.04 94 1015.9
20201029181859 48 151 1.0 3.0 0.00 0.04 0.04 95 1015.8
20201029181342 48 97 0.0 4.0 0.00 0.04 0.04 95 1016.0
20201029180828 48 352 3.0 4.0 0.00 0.04 0.04 95 1015.7
20201029180324 48 223 1.0 3.0 0.00 0.04 0.04 96 1015.6
20201029175818 49 253 2.0 3.0 0.00 0.04 0.04 96 1015.7
20201029175306 49 201 1.0 3.0 0.00 0.04 0.04 96 1015.8
20201029174759 49 240 2.0 4.0 0.00 0.04 0.04 96 1015.6
20201029174243 49 179 0.0 4.0 0.00 0.04 0.04 96 1015.5
20201029173728 49 186 1.0 3.0 0.00 0.04 0.04 97 1015.5
20201029173228 49 200 1.0 3.0 0.00 0.04 0.04 97 1015.4
20201029172715 49 153 0.0 4.0 0.00 0.04 0.04 97 1015.6
20201029172206 49 189 0.0 4.0 0.00 0.04 0.04 97 1015.1
20201029171700 49 267 2.0 8.0 0.00 0.04 0.04 97 1015.4
20201029171151 49 177 1.0 8.0 0.00 0.04 0.04 96 1015.3
20201029170645 49 178 3.0 6.0 0.01 0.04 0.04 96 1015.2
20201029170137 49 171 0.0 4.0 0.01 0.04 0.04 96 1015.2
20201029165624 49 270 2.0 3.0 0.01 0.04 0.04 96 1015.4
20201029165121 49 171 1.0 3.0 0.01 0.04 0.04 97 1014.9
20201029164617 49 218 3.0 4.0 0.01 0.04 0.04 96 1015.1
20201029164105 49 187 1.0 4.0 0.01 0.04 0.04 96 1015.1
20201029163552 49 221 3.0 4.0 0.01 0.04 0.04 96 1014.8
20201029163044 49 184 0.0 6.0 0.01 0.04 0.04 96 1015.1
20201029162547 50 150 1.0 7.0 0.01 0.04 0.04 96 1015.0
20201029162033 50 278 4.0 7.0 0.01 0.04 0.04 96 1014.8
20201029161526 50 246 3.0 7.0 0.01 0.04 0.04 96 1014.8
20201029161024 50 182 1.0 7.0 0.01 0.04 0.04 96 1014.5
20201029160517 50 271 2.0 6.0 0.00 0.03 0.03 96 1014.5
20201029155959 50 244 2.0 6.0 0.00 0.03 0.03 96 1014.4
20201029155458 50 229 2.0 6.0 0.01 0.03 0.03 96 1014.6
20201029154943 50 189 1.0 3.0 0.01 0.03 0.03 96 1014.4
20201029154440 50 173 0.0 2.0 0.01 0.03 0.03 96 1014.4
20201029153931 50 207 2.0 2.0 0.02 0.03 0.03 96 1014.3
20201029153420 50 156 1.0 2.0 0.02 0.03 0.03 96 1014.2
20201029152858 50 165 0.0 2.0 0.02 0.03 0.03 95 1014.0
20201029152354 50 191 0.0 4.0 0.02 0.03 0.03 95 1014.2
20201029151847 50 193 1.0 4.0 0.02 0.03 0.03 95 1013.9
20201029151339 50 176 2.0 3.0 0.02 0.03 0.03 94 1013.6
20201029150837 51 185 2.0 3.0 0.02 0.03 0.03 94 1013.9
20201029150320 51 189 1.0 4.0 0.02 0.03 0.03 94 1013.8
20201029145815 51 164 0.0 4.0 0.02 0.03 0.03 93 1014.1
20201029145306 52 217 3.0 4.0 0.01 0.02 0.02 92 1013.8
20201029144758 52 167 1.0 4.0 0.01 0.02 0.02 91 1013.9
20201029144247 52 206 1.0 6.0 0.00 0.01 0.01 90 1013.7
20201029143743 53 208 1.0 6.0 0.00 0.01 0.01 89 1013.7
20201029143239 53 260 2.0 4.0 0.00 0.01 0.01 87 1013.6
20201029142728 53 170 0.0 4.0 0.00 0.01 0.01 88 1013.5
20201029142217 53 202 1.0 4.0 0.00 0.01 0.01 87 1013.4
20201029141726 53 203 0.0 2.0 0.00 0.01 0.01 87 1013.4
20201029141159 53 163 1.0 2.0 0.00 0.01 0.01 88 1013.3
20201029140707 53 154 0.0 3.0 0.00 0.01 0.01 88 1013.4
20201029140146 53 196 2.0 4.0 0.00 0.01 0.01 88 1013.3
20201029135633 53 167 1.0 4.0 0.00 0.01 0.01 89 1013.4
20201029135126 53 231 2.0 3.0 0.00 0.01 0.01 88 1013.3
20201029134622 53 162 1.0 3.0 0.00 0.01 0.01 89 1013.4
20201029134111 53 183 2.0 3.0 0.00 0.01 0.01 89 1013.3
20201029133601 53 155 2.0 3.0 0.01 0.01 0.01 88 1013.4
20201029133057 53 149 1.0 3.0 0.01 0.01 0.01 88 1013.1
20201029132601 53 182 0.0 3.0 0.01 0.01 0.01 88 1013.2
20201029132041 53 170 2.0 4.0 0.01 0.01 0.01 88 1013.3
20201029131529 53 147 3.0 4.0 0.01 0.01 0.01 88 1013.4
20201029131021 53 188 2.0 3.0 0.01 0.01 0.01 88 1013.3
20201029130513 53 172 0.0 4.0 0.01 0.01 0.01 89 1013.1
20201029125957 53 145 2.0 4.0 0.01 0.01 0.01 88 1013.3
20201029125445 53 170 1.0 4.0 0.01 0.01 0.01 89 1013.5
20201029124942 53 143 1.0 4.0 0.01 0.01 0.01 88 1013.3
20201029124445 53 140 0.0 4.0 0.01 0.01 0.01 87 1013.3
20201029123921 54 184 3.0 7.0 0.00 0.00 0.00 85 1013.2
20201029123416 54 226 2.0 7.0 0.00 0.00 0.00 84 1013.1
20201029122922 54 255 2.0 3.0 0.00 0.00 0.00 85 1013.3
20201029122357 54 178 0.0 4.0 0.00 0.00 0.00 84 1013.2
20201029121853 54 203 1.0 6.0 0.00 0.00 0.00 83 1013.3
20201029121350 54 300 2.0 7.0 0.00 0.00 0.00 83 1013.1
20201029120842 54 246 4.0 7.0 0.00 0.00 0.00 80 1013.3
20201029120334 55 76 2.0 6.0 0.00 0.00 0.00 79 1013.4
20201029115821 55 243 2.0 8.0 0.00 0.00 0.00 78 1013.1
20201029115328 55 207 2.0 8.0 0.00 0.00 0.00 79 1013.0
20201029114808 55 196 3.0 6.0 0.00 0.00 0.00 80 1013.2
20201029114256 55 138 1.0 6.0 0.00 0.00 0.00 79 1013.0
20201029113800 55 201 2.0 6.0 0.00 0.00 0.00 78 1013.0
20201029113242 55 162 3.0 8.0 0.00 0.00 0.00 78 1013.1
20201029112742 55 249 1.0 8.0 0.00 0.00 0.00 79 1013.0
20201029112226 55 249 2.0 10.0 0.00 0.00 0.00 79 1013.3
20201029111718 55 224 2.0 10.0 0.00 0.00 0.00 79 1013.4
20201029111202 55 276 3.0 10.0 0.00 0.00 0.00 79 1013.4
20201029110704 55 151 1.0 10.0 0.00 0.00 0.00 79 1013.4
20201029110154 55 164 2.0 6.0 0.00 0.00 0.00 79 1013.4
20201029105641 55 151 2.0 6.0 0.00 0.00 0.00 80 1013.1
20201029105120 55 186 2.0 6.0 0.00 0.00 0.00 78 1013.3
20201029104607 55 131 2.0 8.0 0.00 0.00 0.00 80 1013.1
20201029104101 54 177 1.0 8.0 0.00 0.00 0.00 81 1013.3
20201029103607 54 182 4.0 6.0 0.00 0.00 0.00 80 1013.3
20201029103105 54 182 3.0 3.0 0.00 0.00 0.00 81 1013.4
20201029102539 54 173 2.0 10.0 0.00 0.00 0.00 79 1013.5
20201029102100 54 174 1.0 10.0 0.00 0.00 0.00 80 1013.2
20201029101535 54 214 3.0 4.0 0.00 0.00 0.00 79 1013.4
20201029101026 54 170 0.0 8.0 0.00 0.00 0.00 80 1013.5
20201029100458 55 154 3.0 8.0 0.00 0.00 0.00 79 1013.7
20201029095955 55 248 2.0 6.0 0.00 0.00 0.00 80 1013.6
20201029095439 55 157 2.0 4.0 0.00 0.00 0.00 79 1013.6
20201029094943 55 232 1.0 7.0 0.00 0.00 0.00 80 1013.9
20201029094423 55 214 3.0 8.0 0.00 0.00 0.00 79 1013.7
20201029093926 55 172 6.0 8.0 0.00 0.00 0.00 79 1013.5
20201029093410 55 174 4.0 8.0 0.00 0.00 0.00 81 1013.3
20201029092901 55 158 4.0 8.0 0.00 0.00 0.00 79 1013.4
20201029092358 55 239 3.0 7.0 0.00 0.00 0.00 78 1013.6
20201029091856 54 149 5.0 7.0 0.00 0.00 0.00 81 1013.2
20201029091343 54 130 2.0 8.0 0.00 0.00 0.00 81 1013.6
20201029090832 54 197 3.0 8.0 0.00 0.00 0.00 82 1013.6
20201029090325 54 241 3.0 6.0 0.00 0.00 0.00 80 1013.5
20201029085819 54 169 2.0 8.0 0.00 0.00 0.00 82 1013.9
20201029085319 54 200 4.0 8.0 0.00 0.00 0.00 78 1013.4
20201029084812 54 275 4.0 8.0 0.00 0.00 0.00 81 1013.6
20201029084257 53 266 2.0 7.0 0.00 0.00 0.00 82 1013.5
20201029083748 53 173 2.0 7.0 0.00 0.00 0.00 83 1013.5
20201029083246 53 266 3.0 8.0 0.00 0.00 0.00 81 1013.4
20201029082732 53 197 2.0 8.0 0.00 0.00 0.00 83 1013.5
20201029082220 53 153 2.0 7.0 0.00 0.00 0.00 82 1013.5
20201029081716 53 157 2.0 7.0 0.00 0.00 0.00 82 1013.7
20201029081214 53 189 2.0 7.0 0.00 0.00 0.00 83 1013.6
20201029080656 53 212 0.0 6.0 0.00 0.00 0.00 83 1013.8
20201029080152 53 114 2.0 7.0 0.00 0.00 0.00 83 1013.8
20201029075643 53 169 5.0 7.0 0.00 0.00 0.00 83 1013.7
20201029075135 52 162 1.0 6.0 0.00 0.00 0.00 84 1013.9
20201029074627 52 164 2.0 4.0 0.00 0.00 0.00 85 1013.7
20201029074134 51 148 1.0 3.0 0.00 0.00 0.00 85 1013.9
20201029073623 51 197 2.0 4.0 0.00 0.00 0.00 87 1013.5
20201029073128 49 193 2.0 6.0 0.00 0.00 0.00 89 1014.0
20201029072558 48 160 1.0 6.0 0.00 0.00 0.00 91 1013.8
20201029072046 49 171 1.0 4.0 0.00 0.00 0.00 91 1014.0
20201029071557 49 147 1.0 4.0 0.00 0.00 0.00 91 1014.3
20201029071032 49 164 2.0 3.0 0.00 0.00 0.00 91 1014.2
20201029070510 49 168 1.0 4.0 0.00 0.00 0.00 91 1014.1
20201029070001 48 161 2.0 6.0 0.00 0.00 0.00 91 1014.1
20201029065452 48 136 1.0 6.0 0.00 0.00 0.00 92 1013.9
20201029064945 48 164 2.0 4.0 0.00 0.00 0.00 92 1014.0
20201029064438 48 152 2.0 4.0 0.00 0.00 0.00 92 1013.6
20201029063934 48 153 0.0 6.0 0.00 0.00 0.00 92 1014.0
20201029063420 48 163 1.0 6.0 0.00 0.00 0.00 93 1014.1
20201029062916 47 160 3.0 4.0 0.00 0.00 0.00 93 1014.0
20201029062408 47 174 2.0 4.0 0.00 0.00 0.00 93 1014.0
20201029061901 47 183 1.0 4.0 0.00 0.00 0.00 93 1014.0
20201029061354 47 144 1.0 4.0 0.00 0.00 0.00 93 1014.0
20201029060839 47 173 1.0 4.0 0.00 0.00 0.00 93 1014.0
20201029060332 47 169 2.0 4.0 0.00 0.00 0.00 93 1014.0
20201029055828 47 159 1.0 4.0 0.00 0.00 0.00 92 1014.0
20201029055320 47 166 2.0 4.0 0.00 0.00 0.00 93 1013.9
20201029054757 47 170 0.0 4.0 0.00 0.00 0.00 93 1014.2
20201029054249 47 179 1.0 4.0 0.00 0.00 0.00 93 1014.2
20201029053744 47 194 1.0 4.0 0.00 0.00 0.00 92 1014.3
20201029053246 47 132 3.0 4.0 0.00 0.00 0.00 93 1014.2
20201029052725 48 172 2.0 6.0 0.00 0.00 0.00 92 1013.9
20201029052218 48 179 2.0 6.0 0.00 0.00 0.00 92 1014.0
20201029051714 48 161 1.0 4.0 0.00 0.00 0.00 92 1013.9
20201029051202 48 131 1.0 4.0 0.00 0.00 0.00 92 1014.4
20201029050701 47 173 2.0 4.0 0.00 0.00 0.00 92 1014.3
20201029050146 47 145 1.0 3.0 0.00 0.00 0.00 93 1014.2
20201029045643 47 158 2.0 3.0 0.00 0.00 0.00 93 1014.0
20201029045135 47 164 2.0 4.0 0.00 0.00 0.00 93 1013.9
20201029044624 47 162 1.0 6.0 0.00 0.00 0.00 93 1014.1
20201029044117 47 175 1.0 6.0 0.00 0.00 0.00 93 1013.9
20201029043617 47 156 2.0 4.0 0.00 0.00 0.00 93 1014.1
20201029043102 48 169 1.0 4.0 0.00 0.00 0.00 93 1014.0
20201029042554 48 182 1.0 4.0 0.00 0.00 0.00 93 1014.0
20201029042032 48 155 2.0 3.0 0.00 0.00 0.00 93 1014.1
20201029041528 48 156 1.0 3.0 0.00 0.00 0.00 93 1013.8
20201029041042 48 172 1.0 2.0 0.00 0.00 0.00 93 1013.9
20201029040514 48 149 0.0 2.0 0.00 0.00 0.00 93 1014.0
20201029035959 48 159 1.0 2.0 0.00 0.00 0.00 92 1014.1
20201029035458 48 177 1.0 2.0 0.00 0.00 0.00 92 1014.2
20201029034936 48 144 2.0 2.0 0.00 0.00 0.00 92 1013.9
20201029034423 48 172 1.0 3.0 0.00 0.00 0.00 92 1014.0
20201029033917 49 160 2.0 3.0 0.00 0.00 0.00 92 1014.4
20201029033409 49 168 1.0 3.0 0.00 0.00 0.00 92 1014.2
20201029032902 49 169 0.0 2.0 0.00 0.00 0.00 92 1014.1
20201029032351 49 154 1.0 3.0 0.00 0.00 0.00 91 1014.1
20201029031844 49 154 1.0 3.0 0.00 0.00 0.00 91 1014.0
20201029031353 49 158 0.0 2.0 0.00 0.00 0.00 91 1014.1
20201029030826 49 159 1.0 2.0 0.00 0.00 0.00 91 1014.0
20201029030321 49 166 1.0 3.0 0.00 0.00 0.00 91 1014.1
20201029025811 49 199 1.0 3.0 0.00 0.00 0.00 90 1014.1
20201029025306 49 169 0.0 3.0 0.00 0.00 0.00 90 1014.1
20201029024759 49 151 2.0 3.0 0.00 0.00 0.00 90 1014.0
20201029024239 49 152 0.0 3.0 0.00 0.00 0.00 90 1014.2
20201029023737 49 170 0.0 4.0 0.00 0.00 0.00 90 1014.3
20201029023227 49 188 2.0 7.0 0.00 0.00 0.00 90 1014.2
20201029022715 49 179 1.0 7.0 0.00 0.00 0.00 90 1014.1
20201029022204 49 141 2.0 3.0 0.00 0.00 0.00 90 1014.1
20201029021658 50 266 3.0 3.0 0.00 0.00 0.00 90 1014.2
20201029021147 50 169 1.0 3.0 0.00 0.00 0.00 90 1014.3
20201029020644 50 153 1.0 3.0 0.00 0.00 0.00 90 1014.2
20201029020147 50 180 2.0 4.0 0.00 0.00 0.00 89 1014.4
20201029015626 50 168 0.0 4.0 0.00 0.00 0.00 90 1014.1
20201029015122 50 232 2.0 4.0 0.00 0.00 0.00 90 1014.4
20201029014610 50 182 3.0 4.0 0.00 0.00 0.00 90 1014.2
20201029014111 49 164 1.0 4.0 0.00 0.00 0.00 90 1014.3
20201029013556 49 184 1.0 2.0 0.00 0.00 0.00 90 1014.5
20201029013048 49 161 1.0 2.0 0.00 0.00 0.00 90 1014.3
20201029012553 49 178 2.0 2.0 0.00 0.00 0.00 90 1014.4
20201029011850 49 145 0.0 2.0 0.00 0.00 0.00 90 1014.2
20201029011341 49 159 2.0 2.0 0.00 0.00 0.00 90 1014.5
20201029010827 49 167 0.0 1.0 0.00 0.00 0.00 90 1014.5
20201029010321 49 164 0.0 2.0 0.00 0.00 0.00 90 1014.5
20201029005820 49 150 0.0 2.0 0.00 0.00 0.00 90 1014.4
20201029005252 49 167 1.0 2.0 0.00 0.00 0.00 91 1014.7
20201029004751 49 156 1.0 2.0 0.00 0.00 0.00 90 1014.6
20201029004238 49 199 1.0 2.0 0.00 0.00 0.00 91 1014.6
20201029003740 49 157 1.0 2.0 0.00 0.00 0.00 91 1014.7
20201029003311 49 159 2.0 3.0 0.00 0.00 0.00 91 1014.7
20201029002746 49 189 2.0 3.0 0.00 0.00 0.00 91 1014.7
20201029002202 49 151 1.0 2.0 0.00 0.00 0.00 91 1014.8
20201029001658 49 163 2.0 2.0 0.00 0.00 0.00 91 1014.8
20201029001154 49 172 2.0 4.0 0.00 0.00 0.00 91 1014.7
20201029000650 49 153 1.0 4.0 0.00 0.00 0.00 92 1014.8
20201029000157 49 180 2.0 4.0 0.00 0.00 0.00 92 1014.9
20201028235628 49 153 1.0 4.0 0.00 0.00 0.00 91 1014.6
20201028235129 49 160 1.0 4.0 0.00 0.00 0.00 92 1014.6
20201028234639 49 170 2.0 3.0 0.00 0.00 0.00 91 1014.6
20201028234111 49 186 1.0 4.0 0.00 0.00 0.00 91 1014.7
20201028233551 49 183 2.0 4.0 0.00 0.00 0.00 91 1014.7
20201028233100 49 162 2.0 3.0 0.00 0.00 0.00 91 1014.8
20201028232536 49 165 0.0 2.0 0.00 0.00 0.00 91 1014.7
20201028232040 49 145 1.0 2.0 0.00 0.00 0.00 91 1015.1
20201028231521 50 156 2.0 3.0 0.00 0.00 0.00 91 1014.8
20201028231001 50 153 2.0 3.0 0.00 0.00 0.00 91 1015.1
20201028230505 50 190 1.0 2.0 0.00 0.00 0.00 91 1015.0
20201028225950 50 248 2.0 3.0 0.00 0.00 0.00 91 1015.0
20201028225441 50 172 2.0 3.0 0.00 0.00 0.00 91 1014.9
20201028224945 50 175 1.0 3.0 0.00 0.00 0.00 91 1015.1
20201028224409 50 169 0.0 4.0 0.00 0.00 0.00 91 1014.8
20201028223909 50 169 2.0 4.0 0.00 0.00 0.00 91 1015.0
20201028223402 50 151 1.0 4.0 0.00 0.00 0.00 91 1014.9